Clintonville, WI (54929)

8:06 PM CST on February 08, 2016 (GMT -0600)
Clintonville Municipal | | Change Station
CLOSE
Current Station
Airport
Location: Clintonville,
Elevation: 823 ft
Nearby Weather Stations
Active Advisory: Special Statement

Elev 823 ft 44.62 °N, 88.73 °W | Updated 11 minutes ago

Light Snow
Light Snow
21 °F
Feels Like 10 °F
N
12
Wind Variable Wind from NNW
Gusts 17 mph

Today
High -- | Low -- °F
--% Chance of Precip.
Yesterday
High -- | Low -- °F
Precip. -- in
Pressure 29.76 in
Visibility 7.0 miles
Clouds Scattered Clouds 3200 ft
Overcast 4800 ft
Windchill 10 °F
Dew Point 14 °F
Humidity 74%
Rainfall 0.00 in
Snow Depth Not available.
7:05 AM 5:13 PM
New Moon, 0% visible
METAR KCLI 090155Z AUTO 33010G15KT 7SM -SN SCT032 OVC048 M06/M10 A2976 RMK AO2
Pressure 29.76 in
Visibility 7.0 miles
Clouds Scattered Clouds 3200 ft
Overcast 4800 ft
Windchill 10 °F
Dew Point 14 °F
Humidity 74%
Rainfall 0.00 in
Snow Depth Not available.
7:05 AM 5:13 PM
New Moon, 0% visible
METAR KCLI 090155Z AUTO 33010G15KT 7SM -SN SCT032 OVC048 M06/M10 A2976 RMK AO2

10-Day Weather Forecast

Almanac

Astronomy

Feb. 08, 2016 Rise Set
Actual Time
Civil Twilight
Nautical Twilight
Astronomical Twilight
Moon
Length of Visible Light
Length of Day
Tomorrow will be .
, % of the Moon is Illuminated

Today's Extremes

State Highs State Lows

Community

WunderPhotos

Upload Photos

1,891,527 photos uploaded!

WunderBlog® & News

Nearby

Air Quality

  Air Quality AQ Index Pollutant
Not available.

Snow Depth

Station Depth Elevation

Earthquake Activity

City Distance Mag. Time & Date
Minimum magnitude displayed is 2.5.

Coastal Water Temperatures

Place Temperature

Stations

Nearby Weather Stations

Station Location Temp. Windchill Dew Point Humidity Wind Precip. Elev Updated Type
                   

Watches & Warnings

Special Statement
Issued: 7:45 PM CST Feb. 8, 2016 – National Weather Service

... Snow covered and slippery roads expected tonight...

Look for light snow showers through the overnight hours across
northeast... east central and portions of central Wisconsin.
Anywhere from a few tenths of an inch up to an inch is possible
between 8 PM and midnight.

Although snowfall amounts are expected to be light... roads are
expected to be snow covered and slippery. Motorists are urged to
exercise caution when traveling area roads during the overnight
hours.


Kurimski


745 PM CST Mon Feb 8 2016

... Snow covered and slippery roads expected tonight...

Look for light snow showers through the overnight hours across
northeast... east central and portions of central Wisconsin.
Anywhere from a few tenths of an inch up to an inch is possible
between 8 PM and midnight.

Although snowfall amounts are expected to be light... roads are
expected to be snow covered and slippery. Motorists are urged to
exercise caution when traveling area roads during the overnight
hours.


Kurimski